F/V Mare Liberum — FVHW — position and weather

sailwx.info

Track history (hours):
 
Tides and Currents Weather Stations Pressure Air Temp Water Temp Dewpoint Dewpoint Depression Visibility Wind Speed Wind Dir Waves Ship Positions

F/V Mare Liberum

Last reported at 2017-Feb-20 10:21 UTC. Time now 2017-Feb-20 11:15 UTC.
Position N 46°56' W 003°09'.

Length 21 m.

Type: Fishing. MMSI: 227426000.

Date/timePositionNaut miles runAvg speedWind from/ knotsBaromVisibWave heightAir tempDewpointWater temp
2017-Feb-20 10:21N 46°56' W 003°09'4 0.4
2017-Feb-20 00:21N 46°53' W 003°08'2 1.2
2017-Feb-19 22:24N 46°55' W 003°09'0 0.0
2017-Feb-19 21:03N 46°55' W 003°09'0 0.0
2017-Feb-19 15:13N 46°55' W 003°09'0 0.1
2017-Feb-19 14:18N 46°55' W 003°09'0 0.2
2017-Feb-19 13:33N 46°55' W 003°09'2 1.7
2017-Feb-19 12:17N 46°53' W 003°09'2 2.2
2017-Feb-19 11:27N 46°55' W 003°09'3 3.4
2017-Feb-19 10:33N 46°52' W 003°07'1 1.5
2017-Feb-19 09:33N 46°53' W 003°09'2 1.5
2017-Feb-19 08:33N 46°54' W 003°10'1 1.2
2017-Feb-19 07:33N 46°55' W 003°08'1 1.1
2017-Feb-19 06:33N 46°55' W 003°10'2 1.7
2017-Feb-19 05:30N 46°54' W 003°09'2 2.1
2017-Feb-19 04:33N 46°55' W 003°09'1 1.4
2017-Feb-19 03:33N 46°54' W 003°09'1 0.8
2017-Feb-19 02:33N 46°55' W 003°09'0 0.1
2017-Feb-19 01:33N 46°55' W 003°09'1 1.1
2017-Feb-19 00:30N 46°55' W 003°10'0 0.0
2017-Feb-18 23:27N 46°55' W 003°10'0 0.0
2017-Feb-18 22:28N 46°55' W 003°10'0 0.1
2017-Feb-18 21:33N 46°56' W 003°10'0 0.2
2017-Feb-18 20:33N 46°56' W 003°10'0 0.1
2017-Feb-18 19:33N 46°56' W 003°10'0 0.0
2017-Feb-18 18:33N 46°56' W 003°10'0 0.1
2017-Feb-18 17:29N 46°56' W 003°10'0 0.1
2017-Feb-18 16:19N 46°56' W 003°10'0 0.0
2017-Feb-18 15:30N 46°56' W 003°10'0 0.0
2017-Feb-18 14:30N 46°56' W 003°10'0 0.0
2017-Feb-18 13:33N 46°56' W 003°10'3 2.7
2017-Feb-18 12:33N 46°53' W 003°09'2 1.6
2017-Feb-18 11:33N 46°55' W 003°10'1 1.0
2017-Feb-18 10:33N 46°54' W 003°09'1 1.3
2017-Feb-18 09:33N 46°55' W 003°08'0 0.4
2017-Feb-18 08:33N 46°55' W 003°08'1 0.8
2017-Feb-18 07:33N 46°54' W 003°09'2 1.7
2017-Feb-18 06:33N 46°56' W 003°09'2 2.2
2017-Feb-18 05:33N 46°54' W 003°08'2 1.9
2017-Feb-18 04:33N 46°56' W 003°09'1 1.2
2017-Feb-18 03:33N 46°55' W 003°09'1 0.4
2017-Feb-18 02:13N 46°54' W 003°09'1 2.0
2017-Feb-18 01:33N 46°55' W 003°10'1 0.5
2017-Feb-18 00:33N 46°56' W 003°10'0 0.0
2017-Feb-17 23:33N 46°56' W 003°10'0 0.0
2017-Feb-17 22:27N 46°56' W 003°10'0 0.1
2017-Feb-17 21:15N 46°56' W 003°10'0 0.1
2017-Feb-17 20:30N 46°56' W 003°10'0 0.1
2017-Feb-17 19:32N 46°56' W 003°10'0 0.1
2017-Feb-17 18:33N 46°56' W 003°10'0 0.0
2017-Feb-17 17:33N 46°56' W 003°10'0 0.1
2017-Feb-17 16:33N 46°56' W 003°10'0 0.1
2017-Feb-17 15:33N 46°56' W 003°10'0 0.1
2017-Feb-17 14:33N 46°56' W 003°10'0 0.2
2017-Feb-17 13:32N 46°56' W 003°10'1 0.5
2017-Feb-17 12:21N 46°55' W 003°09'0 0.4
2017-Feb-17 11:33N 46°55' W 003°09'3 2.5
2017-Feb-17 10:33N 46°53' W 003°08'2 1.8
2017-Feb-17 09:30N 46°54' W 003°10'1 1.1
2017-Feb-17 08:33N 46°55' W 003°10'0 0.2
2017-Feb-17 07:18N 46°55' W 003°10'1 1.6
2017-Feb-17 06:31N 46°55' W 003°08'0 0.1
2017-Feb-17 05:33N 46°55' W 003°08'0 0.4
2017-Feb-17 04:33N 46°55' W 003°09'1 0.7
2017-Feb-17 03:33N 46°54' W 003°09'1 0.9
2017-Feb-17 02:32N 46°55' W 003°09'1 1.1
2017-Feb-17 01:33N 46°54' W 003°09'2 1.5
2017-Feb-17 00:33N 46°55' W 003°10'0 0.0
2017-Feb-16 23:33N 46°55' W 003°10'0 0.0
2017-Feb-16 22:33N 46°55' W 003°10'0 0.1
2017-Feb-16 21:33N 46°55' W 003°10'0 0.1
2017-Feb-16 20:33N 46°55' W 003°09'0 0.1
2017-Feb-16 19:33N 46°55' W 003°09'0 0.1
2017-Feb-16 18:33N 46°56' W 003°09'0 0.1
2017-Feb-16 17:33N 46°56' W 003°09'0 0.0
2017-Feb-16 16:33N 46°56' W 003°09'0 0.0
2017-Feb-16 15:33N 46°56' W 003°09'0 0.1
2017-Feb-16 14:33N 46°56' W 003°09'1 0.8
2017-Feb-16 13:14N 46°55' W 003°10'1 1.6
2017-Feb-16 12:21N 46°53' W 003°09'0 0.5
2017-Feb-16 11:27N 46°53' W 003°09'2 1.9
2017-Feb-16 10:27N 46°55' W 003°09'2 0.2
2017-Feb-16 02:30N 46°54' W 003°08'2 1.6
2017-Feb-16 01:33N 46°55' W 003°09'0 0.2
2017-Feb-16 00:25N 46°55' W 003°09'0 0.1
2017-Feb-15 23:15N 46°55' W 003°09'0 0.0
2017-Feb-15 22:33N 46°55' W 003°09'0 0.1
2017-Feb-15 21:15N 46°55' W 003°09'0 0.1
2017-Feb-15 19:17N 46°55' W 003°09'4 1.0
2017-Feb-15 15:18N 46°54' W 003°03'32 4.6
2017-Feb-15 08:27N 47°02' W 002°18'2 2.7
2017-Feb-15 07:33N 47°01' W 002°22'23 9.7
2017-Feb-15 05:09N 46°56' W 002°55'610.2
2017-Feb-15 04:33N 46°55' W 003°04'1 0.6
2017-Feb-15 02:09N 46°55' W 003°02'0 0.4
2017-Feb-15 01:17N 46°55' W 003°01'1 0.8
2017-Feb-14 23:30N 46°56' W 003°02'0 0.1
2017-Feb-14 22:30N 46°56' W 003°02'0 0.0
2017-Feb-14 21:33N 46°56' W 003°02'0 0.0
2017-Feb-14 19:33N 46°57' W 003°02'0 0.0
2017-Feb-14 18:33N 46°57' W 003°02'0 0.1
2017-Feb-14 17:30N 46°57' W 003°02'0 0.2
2017-Feb-14 16:27N 46°57' W 003°02'0 0.0
2017-Feb-14 15:30N 46°57' W 003°02'0 0.1
2017-Feb-14 14:15N 46°57' W 003°02'0 0.1
2017-Feb-14 13:15N 46°57' W 003°02'0 0.1
2017-Feb-14 12:24N 46°56' W 003°02'0 0.1
2017-Feb-14 10:33N 46°56' W 003°02'1 0.8
2017-Feb-14 09:33N 46°56' W 003°01'1 1.2
2017-Feb-14 08:33N 46°54' W 003°02'24 1.9
2017-Feb-13 20:11N 47°00' W 002°28'4 6.4
2017-Feb-13 19:33N 47°01' W 002°22'3 1.4
2017-Feb-13 17:31N 47°02' W 002°18'0 0.0
2017-Feb-13 16:31N 47°02' W 002°18'0 0.0
2017-Feb-13 14:16N 47°02' W 002°18'0 0.0
2017-Feb-13 11:31N 47°02' W 002°18'0 0.0
2017-Feb-13 09:28N 47°02' W 002°18'0 0.0
2017-Feb-13 08:32N 47°02' W 002°18'0 0.0
2017-Feb-13 06:33N 47°02' W 002°18'0 0.0
2017-Feb-13 05:27N 47°02' W 002°18'0 0.0
2017-Feb-13 04:33N 47°02' W 002°18'0 0.0
2017-Feb-13 03:33N 47°02' W 002°18'0 0.0
2017-Feb-13 01:32N 47°01' W 002°18'0 0.0
2017-Feb-13 00:33N 47°02' W 002°18'0 0.0
2017-Feb-12 23:33N 47°02' W 002°18'0 0.0
2017-Feb-12 22:33N 47°02' W 002°18'0 0.0
2017-Feb-12 21:33N 47°02' W 002°18'0 0.0
2017-Feb-12 20:33N 47°02' W 002°18'0 0.0
2017-Feb-12 16:33N 47°02' W 002°18'0 0.0
2017-Feb-12 15:33N 47°02' W 002°18'3 2.8
2017-Feb-12 14:33N 47°01' W 002°22'26 8.6
2017-Feb-12 11:33N 46°55' W 002°59'1 0.1
2017-Feb-11 22:30N 46°54' W 003°00'0 0.0
2017-Feb-11 21:33N 46°54' W 003°00'0 0.1
2017-Feb-11 20:15N 46°54' W 003°00'0 0.1
2017-Feb-11 19:30N 46°54' W 002°60'0 0.1
2017-Feb-11 18:18N 46°54' W 002°60'1 0.0
2017-Feb-11 00:12N 46°54' W 002°59'0 0.3
2017-Feb-10 23:33N 46°54' W 002°59'0 0.0
2017-Feb-10 22:12N 46°54' W 002°59'0 0.0
2017-Feb-10 21:30N 46°54' W 002°59'0 0.0
2017-Feb-10 20:33N 46°54' W 002°59'0 0.0
2017-Feb-10 19:33N 46°54' W 002°59'0 0.0
2017-Feb-10 18:30N 46°54' W 002°59'0 0.0
2017-Feb-10 17:33N 46°54' W 002°59'0 0.0
2017-Feb-10 16:33N 46°54' W 002°59'0 0.0
2017-Feb-10 15:27N 46°54' W 002°59'0 0.0
2017-Feb-10 14:24N 46°54' W 002°59'  
Track history (hours):
 
Tides and Currents Weather Stations Pressure Air Temp Water Temp Dewpoint Dewpoint Depression Visibility Wind Speed Wind Dir Waves Ship Positions

F/V Mare Liberum

Last reported at 2017-Feb-20 10:21 UTC. Time now 2017-Feb-20 11:15 UTC.
Position N 46°56' W 003°09'.

Length 21 m.

Type: Fishing. MMSI: 227426000.

Date/timePositionNaut miles runAvg speedWind from/ knotsBaromVisibWave heightAir tempDewpointWater temp
2017-Feb-20 10:21N 46°56' W 003°09'4 0.4
2017-Feb-20 00:21N 46°53' W 003°08'2 1.2
2017-Feb-19 22:24N 46°55' W 003°09'0 0.0
2017-Feb-19 21:03N 46°55' W 003°09'0 0.0
2017-Feb-19 15:13N 46°55' W 003°09'0 0.1
2017-Feb-19 14:18N 46°55' W 003°09'0 0.2
2017-Feb-19 13:33N 46°55' W 003°09'2 1.7
2017-Feb-19 12:17N 46°53' W 003°09'2 2.2
2017-Feb-19 11:27N 46°55' W 003°09'3 3.4
2017-Feb-19 10:33N 46°52' W 003°07'1 1.5
2017-Feb-19 09:33N 46°53' W 003°09'2 1.5
2017-Feb-19 08:33N 46°54' W 003°10'1 1.2
2017-Feb-19 07:33N 46°55' W 003°08'1 1.1
2017-Feb-19 06:33N 46°55' W 003°10'2 1.7
2017-Feb-19 05:30N 46°54' W 003°09'2 2.1
2017-Feb-19 04:33N 46°55' W 003°09'1 1.4
2017-Feb-19 03:33N 46°54' W 003°09'1 0.8
2017-Feb-19 02:33N 46°55' W 003°09'0 0.1
2017-Feb-19 01:33N 46°55' W 003°09'1 1.1
2017-Feb-19 00:30N 46°55' W 003°10'0 0.0
2017-Feb-18 23:27N 46°55' W 003°10'0 0.0
2017-Feb-18 22:28N 46°55' W 003°10'0 0.1
2017-Feb-18 21:33N 46°56' W 003°10'0 0.2
2017-Feb-18 20:33N 46°56' W 003°10'0 0.1
2017-Feb-18 19:33N 46°56' W 003°10'0 0.0
2017-Feb-18 18:33N 46°56' W 003°10'0 0.1
2017-Feb-18 17:29N 46°56' W 003°10'0 0.1
2017-Feb-18 16:19N 46°56' W 003°10'0 0.0
2017-Feb-18 15:30N 46°56' W 003°10'0 0.0
2017-Feb-18 14:30N 46°56' W 003°10'0 0.0
2017-Feb-18 13:33N 46°56' W 003°10'3 2.7
2017-Feb-18 12:33N 46°53' W 003°09'2 1.6
2017-Feb-18 11:33N 46°55' W 003°10'1 1.0
2017-Feb-18 10:33N 46°54' W 003°09'1 1.3
2017-Feb-18 09:33N 46°55' W 003°08'0 0.4
2017-Feb-18 08:33N 46°55' W 003°08'1 0.8
2017-Feb-18 07:33N 46°54' W 003°09'2 1.7
2017-Feb-18 06:33N 46°56' W 003°09'2 2.2
2017-Feb-18 05:33N 46°54' W 003°08'2 1.9
2017-Feb-18 04:33N 46°56' W 003°09'1 1.2
2017-Feb-18 03:33N 46°55' W 003°09'1 0.4
2017-Feb-18 02:13N 46°54' W 003°09'1 2.0
2017-Feb-18 01:33N 46°55' W 003°10'1 0.5
2017-Feb-18 00:33N 46°56' W 003°10'0 0.0
2017-Feb-17 23:33N 46°56' W 003°10'0 0.0
2017-Feb-17 22:27N 46°56' W 003°10'0 0.1
2017-Feb-17 21:15N 46°56' W 003°10'0 0.1
2017-Feb-17 20:30N 46°56' W 003°10'0 0.1
2017-Feb-17 19:32N 46°56' W 003°10'0 0.1
2017-Feb-17 18:33N 46°56' W 003°10'0 0.0
2017-Feb-17 17:33N 46°56' W 003°10'0 0.1
2017-Feb-17 16:33N 46°56' W 003°10'0 0.1
2017-Feb-17 15:33N 46°56' W 003°10'0 0.1
2017-Feb-17 14:33N 46°56' W 003°10'0 0.2
2017-Feb-17 13:32N 46°56' W 003°10'1 0.5
2017-Feb-17 12:21N 46°55' W 003°09'0 0.4
2017-Feb-17 11:33N 46°55' W 003°09'3 2.5
2017-Feb-17 10:33N 46°53' W 003°08'2 1.8
2017-Feb-17 09:30N 46°54' W 003°10'1 1.1
2017-Feb-17 08:33N 46°55' W 003°10'0 0.2
2017-Feb-17 07:18N 46°55' W 003°10'1 1.6
2017-Feb-17 06:31N 46°55' W 003°08'0 0.1
2017-Feb-17 05:33N 46°55' W 003°08'0 0.4
2017-Feb-17 04:33N 46°55' W 003°09'1 0.7
2017-Feb-17 03:33N 46°54' W 003°09'1 0.9
2017-Feb-17 02:32N 46°55' W 003°09'1 1.1
2017-Feb-17 01:33N 46°54' W 003°09'2 1.5
2017-Feb-17 00:33N 46°55' W 003°10'0 0.0
2017-Feb-16 23:33N 46°55' W 003°10'0 0.0
2017-Feb-16 22:33N 46°55' W 003°10'0 0.1
2017-Feb-16 21:33N 46°55' W 003°10'0 0.1
2017-Feb-16 20:33N 46°55' W 003°09'0 0.1
2017-Feb-16 19:33N 46°55' W 003°09'0 0.1
2017-Feb-16 18:33N 46°56' W 003°09'0 0.1
2017-Feb-16 17:33N 46°56' W 003°09'0 0.0
2017-Feb-16 16:33N 46°56' W 003°09'0 0.0
2017-Feb-16 15:33N 46°56' W 003°09'0 0.1
2017-Feb-16 14:33N 46°56' W 003°09'1 0.8
2017-Feb-16 13:14N 46°55' W 003°10'1 1.6
2017-Feb-16 12:21N 46°53' W 003°09'0 0.5
2017-Feb-16 11:27N 46°53' W 003°09'2 1.9
2017-Feb-16 10:27N 46°55' W 003°09'2 0.2
2017-Feb-16 02:30N 46°54' W 003°08'2 1.6
2017-Feb-16 01:33N 46°55' W 003°09'0 0.2
2017-Feb-16 00:25N 46°55' W 003°09'0 0.1
2017-Feb-15 23:15N 46°55' W 003°09'0 0.0
2017-Feb-15 22:33N 46°55' W 003°09'0 0.1
2017-Feb-15 21:15N 46°55' W 003°09'0 0.1
2017-Feb-15 19:17N 46°55' W 003°09'4 1.0
2017-Feb-15 15:18N 46°54' W 003°03'32 4.6
2017-Feb-15 08:27N 47°02' W 002°18'2 2.7
2017-Feb-15 07:33N 47°01' W 002°22'23 9.7
2017-Feb-15 05:09N 46°56' W 002°55'610.2
2017-Feb-15 04:33N 46°55' W 003°04'1 0.6
2017-Feb-15 02:09N 46°55' W 003°02'0 0.4
2017-Feb-15 01:17N 46°55' W 003°01'1 0.8
2017-Feb-14 23:30N 46°56' W 003°02'0 0.1
2017-Feb-14 22:30N 46°56' W 003°02'0 0.0
2017-Feb-14 21:33N 46°56' W 003°02'0 0.0
2017-Feb-14 19:33N 46°57' W 003°02'0 0.0
2017-Feb-14 18:33N 46°57' W 003°02'0 0.1
2017-Feb-14 17:30N 46°57' W 003°02'0 0.2
2017-Feb-14 16:27N 46°57' W 003°02'0 0.0
2017-Feb-14 15:30N 46°57' W 003°02'0 0.1
2017-Feb-14 14:15N 46°57' W 003°02'0 0.1
2017-Feb-14 13:15N 46°57' W 003°02'0 0.1
2017-Feb-14 12:24N 46°56' W 003°02'0 0.1
2017-Feb-14 10:33N 46°56' W 003°02'1 0.8
2017-Feb-14 09:33N 46°56' W 003°01'1 1.2
2017-Feb-14 08:33N 46°54' W 003°02'24 1.9
2017-Feb-13 20:11N 47°00' W 002°28'4 6.4
2017-Feb-13 19:33N 47°01' W 002°22'3 1.4
2017-Feb-13 17:31N 47°02' W 002°18'0 0.0
2017-Feb-13 16:31N 47°02' W 002°18'0 0.0
2017-Feb-13 14:16N 47°02' W 002°18'0 0.0
2017-Feb-13 11:31N 47°02' W 002°18'0 0.0
2017-Feb-13 09:28N 47°02' W 002°18'0 0.0
2017-Feb-13 08:32N 47°02' W 002°18'0 0.0
2017-Feb-13 06:33N 47°02' W 002°18'0 0.0
2017-Feb-13 05:27N 47°02' W 002°18'0 0.0
2017-Feb-13 04:33N 47°02' W 002°18'0 0.0
2017-Feb-13 03:33N 47°02' W 002°18'0 0.0
2017-Feb-13 01:32N 47°01' W 002°18'0 0.0
2017-Feb-13 00:33N 47°02' W 002°18'0 0.0
2017-Feb-12 23:33N 47°02' W 002°18'0 0.0
2017-Feb-12 22:33N 47°02' W 002°18'0 0.0
2017-Feb-12 21:33N 47°02' W 002°18'0 0.0
2017-Feb-12 20:33N 47°02' W 002°18'0 0.0
2017-Feb-12 16:33N 47°02' W 002°18'0 0.0
2017-Feb-12 15:33N 47°02' W 002°18'3 2.8
2017-Feb-12 14:33N 47°01' W 002°22'26 8.6
2017-Feb-12 11:33N 46°55' W 002°59'1 0.1
2017-Feb-11 22:30N 46°54' W 003°00'0 0.0
2017-Feb-11 21:33N 46°54' W 003°00'0 0.1
2017-Feb-11 20:15N 46°54' W 003°00'0 0.1
2017-Feb-11 19:30N 46°54' W 002°60'0 0.1
2017-Feb-11 18:18N 46°54' W 002°60'1 0.0
2017-Feb-11 00:12N 46°54' W 002°59'0 0.3
2017-Feb-10 23:33N 46°54' W 002°59'0 0.0
2017-Feb-10 22:12N 46°54' W 002°59'0 0.0
2017-Feb-10 21:30N 46°54' W 002°59'0 0.0
2017-Feb-10 20:33N 46°54' W 002°59'0 0.0
2017-Feb-10 19:33N 46°54' W 002°59'0 0.0
2017-Feb-10 18:30N 46°54' W 002°59'0 0.0
2017-Feb-10 17:33N 46°54' W 002°59'0 0.0
2017-Feb-10 16:33N 46°54' W 002°59'0 0.0
2017-Feb-10 15:27N 46°54' W 002°59'0 0.0
2017-Feb-10 14:24N 46°54' W 002°59'  

Dump ship's entire track history